Time;durP1;ratioP1;P1;durP2;ratioP2;P2;SDS_P1;SDS_P2;PMS_P1;PMS_P2;Temp;Humidity;BMP_temperature;BMP_pressure;BME280_temperature;BME280_humidity;BME280_pressure;Samples;Min_cycle;Max_cycle;Signal;HPM_P1;HPM_P2
2024/01/26 06:03:05;;;;;;;2.30;2.10;;;;;;;;;;4936065;29;20491;-75
2024/01/26 06:05:30;;;;;;;5.37;2.50;;;;;;;;;;4936384;29;20402;-75
2024/01/26 06:07:56;;;;;;;6.03;2.53;;;;;;;;;;4938578;29;21020;-75
2024/01/26 06:10:23;;;;;;;4.83;2.20;;;;;;;;;;4936320;29;20457;-75
2024/01/26 06:12:49;;;;;;;4.07;2.10;;;;;;;;;;4936424;29;20410;-75
2024/01/26 06:15:15;;;;;;;3.40;2.50;;;;;;;;;;4964953;23;20491;-77
2024/01/26 06:17:41;;;;;;;4.47;2.10;;;;;;;;;;4952680;29;20476;-76
2024/01/26 06:20:07;;;;;;;3.97;2.10;;;;;;;;;;4946671;29;20414;-77
2024/01/26 06:22:33;;;;;;;6.90;2.73;;;;;;;;;;4935728;29;20723;-77
2024/01/26 06:24:59;;;;;;;3.03;1.97;;;;;;;;;;4929734;29;20434;-77
2024/01/26 06:27:25;;;;;;;2.80;1.73;;;;;;;;;;4915643;29;20505;-77
2024/01/26 06:29:51;;;;;;;2.23;1.60;;;;;;;;;;4916567;29;20414;-77
2024/01/26 06:32:19;;;;;;;2.00;1.53;;;;;;;;;;4914345;29;20437;-78
2024/01/26 06:34:45;;;;;;;2.80;1.90;;;;;;;;;;4915974;29;20475;-77
2024/01/26 06:37:12;;;;;;;1.47;1.37;;;;;;;;;;4915581;29;20446;-77
2024/01/26 06:39:37;;;;;;;2.30;1.87;;;;;;;;;;4915983;29;20410;-76
2024/01/26 06:42:04;;;;;;;2.60;1.47;;;;;;;;;;4919947;29;20517;-77
2024/01/26 06:44:31;;;;;;;1.83;1.73;;;;;;;;;;4918467;29;20438;-78
2024/01/26 06:46:57;;;;;;;6.83;1.50;;;;;;;;;;4932302;29;20504;-79
2024/01/26 06:49:23;;;;;;;2.80;1.90;;;;;;;;;;4934602;29;20521;-77
2024/01/26 06:51:49;;;;;;;2.43;1.50;;;;;;;;;;4934019;29;20457;-78
2024/01/26 06:54:15;;;;;;;10.53;1.80;;;;;;;;;;4934744;29;20410;-79
2024/01/26 06:56:41;;;;;;;2.80;1.93;;;;;;;;;;4936569;29;20449;-78
2024/01/26 06:59:06;;;;;;;2.73;1.93;;;;;;;;;;4937786;29;20461;-78
2024/01/26 07:01:32;;;;;;;5.50;1.73;;;;;;;;;;4937628;29;20437;-77
2024/01/26 07:03:59;;;;;;;2.00;1.63;;;;;;;;;;4938459;29;20481;-79
2024/01/26 07:06:25;;;;;;;4.00;1.70;;;;;;;;;;4938605;29;20805;-80
2024/01/26 07:08:51;;;;;;;3.67;1.60;;;;;;;;;;4936657;29;20425;-81
2024/01/26 07:11:19;;;;;;;3.70;1.70;;;;;;;;;;4934683;29;20822;-78
2024/01/26 07:13:45;;;;;;;5.80;1.30;;;;;;;;;;4936187;29;20425;-80
2024/01/26 07:16:11;;;;;;;7.43;1.90;;;;;;;;;;4930619;29;20465;-73
2024/01/26 07:18:37;;;;;;;2.30;1.60;;;;;;;;;;4927422;29;20493;-73
2024/01/26 07:21:07;;;;;;;2.63;1.90;;;;;;;;;;4935953;29;20422;-73
2024/01/26 07:23:34;;;;;;;2.05;1.50;;;;;;;;;;4932072;29;20980;-72
2024/01/26 07:26:00;;;;;;;1.97;1.30;;;;;;;;;;4936183;29;20693;-73
2024/01/26 07:28:27;;;;;;;3.03;1.40;;;;;;;;;;4934141;29;20433;-76
2024/01/26 07:30:53;;;;;;;1.43;1.37;;;;;;;;;;4937727;29;20493;-77
2024/01/26 07:33:18;;;;;;;4.20;1.57;;;;;;;;;;4930050;29;20458;-77
2024/01/26 07:35:44;;;;;;;4.13;1.60;;;;;;;;;;4934717;29;20450;-76
2024/01/26 07:38:10;;;;;;;3.70;1.60;;;;;;;;;;4917306;29;20417;-75
2024/01/26 07:40:36;;;;;;;5.20;1.30;;;;;;;;;;4919208;29;20514;-75
2024/01/26 07:43:02;;;;;;;2.00;1.50;;;;;;;;;;4919783;29;20425;-76
2024/01/26 07:45:28;;;;;;;3.33;1.47;;;;;;;;;;4925996;29;20446;-75
2024/01/26 07:47:55;;;;;;;1.50;1.40;;;;;;;;;;4938974;29;20773;-74
2024/01/26 07:50:21;;;;;;;4.73;1.37;;;;;;;;;;4930227;29;20456;-75
2024/01/26 07:52:47;;;;;;;4.90;1.40;;;;;;;;;;4937129;29;20448;-73
2024/01/26 07:55:13;;;;;;;4.47;1.50;;;;;;;;;;4927198;29;20442;-73
2024/01/26 07:57:39;;;;;;;2.77;1.43;;;;;;;;;;4919429;29;20548;-74
2024/01/26 08:00:08;;;;;;;2.13;1.20;;;;;;;;;;4922108;29;20429;-73
2024/01/26 08:02:34;;;;;;;2.97;1.50;;;;;;;;;;4927278;29;20425;-76
2024/01/26 08:05:00;;;;;;;3.67;1.47;;;;;;;;;;4924439;29;20515;-76
2024/01/26 08:07:26;;;;;;;5.90;1.27;;;;;;;;;;4933446;29;20474;-76
2024/01/26 08:09:52;;;;;;;1.33;1.27;;;;;;;;;;4949316;29;20489;-77
2024/01/26 08:12:20;;;;;;;2.83;1.37;;;;;;;;;;4936352;29;20772;-75
2024/01/26 08:14:46;;;;;;;1.47;1.37;;;;;;;;;;4936300;29;20461;-77
2024/01/26 08:17:12;;;;;;;5.50;1.97;;;;;;;;;;4936439;29;20841;-76
2024/01/26 08:19:38;;;;;;;1.83;1.27;;;;;;;;;;4936529;29;20430;-77
2024/01/26 08:22:05;;;;;;;2.20;1.53;;;;;;;;;;4936885;29;20480;-80
2024/01/26 08:24:32;;;;;;;1.83;1.50;;;;;;;;;;4936405;29;20422;-77
2024/01/26 08:26:58;;;;;;;3.77;1.63;;;;;;;;;;4936431;29;20973;-80
2024/01/26 08:29:26;;;;;;;1.90;1.40;;;;;;;;;;4936697;29;20508;-79
2024/01/26 08:31:52;;;;;;;3.53;1.13;;;;;;;;;;4940391;29;20811;-79
2024/01/26 08:34:19;;;;;;;1.50;1.40;;;;;;;;;;4937253;29;20414;-78
2024/01/26 08:36:45;;;;;;;1.37;1.30;;;;;;;;;;4935896;29;20448;-80
2024/01/26 08:39:12;;;;;;;3.43;1.60;;;;;;;;;;4936447;29;20414;-77
2024/01/26 08:41:39;;;;;;;1.90;1.80;;;;;;;;;;4937679;29;20465;-76
2024/01/26 08:44:04;;;;;;;1.57;1.20;;;;;;;;;;4936703;29;20831;-77
2024/01/26 08:46:30;;;;;;;2.30;1.40;;;;;;;;;;4932233;29;20481;-77
2024/01/26 08:48:56;;;;;;;2.00;1.40;;;;;;;;;;4942892;29;20981;-76
2024/01/26 08:51:23;;;;;;;1.50;1.40;;;;;;;;;;4933283;29;20498;-77
2024/01/26 08:53:49;;;;;;;1.40;1.30;;;;;;;;;;4917728;29;20426;-79
2024/01/26 08:56:15;;;;;;;2.33;1.47;;;;;;;;;;4930011;29;20596;-76
2024/01/26 08:58:41;;;;;;;1.97;1.90;;;;;;;;;;4927440;29;20426;-76
2024/01/26 09:01:08;;;;;;;3.83;1.67;;;;;;;;;;4930435;29;20488;-76
2024/01/26 09:03:34;;;;;;;2.40;1.83;;;;;;;;;;4916570;29;20419;-78
2024/01/26 09:06:00;;;;;;;3.60;1.83;;;;;;;;;;4923074;29;20578;-77
2024/01/26 09:08:27;;;;;;;4.43;1.77;;;;;;;;;;4916636;29;20914;-76
2024/01/26 09:10:53;;;;;;;2.40;1.53;;;;;;;;;;4935049;29;20496;-78
2024/01/26 09:13:20;;;;;;;1.47;1.43;;;;;;;;;;4934841;29;20916;-77
2024/01/26 09:15:46;;;;;;;3.10;1.90;;;;;;;;;;4933543;29;20465;-77
2024/01/26 09:18:12;;;;;;;1.37;1.23;;;;;;;;;;4934532;29;20414;-77
2024/01/26 09:20:38;;;;;;;1.70;1.60;;;;;;;;;;4933635;29;20938;-75
2024/01/26 09:23:04;;;;;;;2.80;1.60;;;;;;;;;;4935296;29;20430;-77
2024/01/26 09:25:30;;;;;;;2.93;1.60;;;;;;;;;;4933322;29;20445;-77
2024/01/26 09:27:56;;;;;;;5.13;1.63;;;;;;;;;;4933001;29;20444;-78
2024/01/26 09:30:22;;;;;;;2.70;1.80;;;;;;;;;;4934014;29;20500;-77
2024/01/26 09:32:48;;;;;;;2.70;2.00;;;;;;;;;;4932829;29;20429;-76
2024/01/26 09:35:14;;;;;;;2.40;1.47;;;;;;;;;;4936227;29;20438;-76
2024/01/26 09:37:41;;;;;;;3.77;1.70;;;;;;;;;;4921386;29;20418;-77
2024/01/26 09:40:07;;;;;;;2.00;1.50;;;;;;;;;;4935668;29;20484;-75
2024/01/26 09:42:33;;;;;;;4.27;1.70;;;;;;;;;;4919844;29;20510;-76
2024/01/26 09:45:01;;;;;;;3.83;1.63;;;;;;;;;;4921811;29;20460;-75
2024/01/26 09:47:27;;;;;;;3.00;1.63;;;;;;;;;;4931551;29;20762;-75
2024/01/26 09:49:56;;;;;;;3.13;1.57;;;;;;;;;;4934690;29;20421;-74
2024/01/26 09:52:23;;;;;;;1.57;1.47;;;;;;;;;;4944962;29;20418;-76
2024/01/26 09:54:50;;;;;;;1.90;1.30;;;;;;;;;;4935991;29;20513;-78
2024/01/26 09:57:17;;;;;;;1.77;1.27;;;;;;;;;;4922689;29;20466;-74
2024/01/26 09:59:43;;;;;;;3.23;1.80;;;;;;;;;;4931222;29;20449;-75
2024/01/26 10:02:11;;;;;;;4.90;2.23;;;;;;;;;;4933085;29;20796;-75
2024/01/26 10:04:36;;;;;;;5.20;2.23;;;;;;;;;;4934813;29;20437;-75
2024/01/26 10:07:02;;;;;;;2.47;1.67;;;;;;;;;;4933852;29;20438;-75
2024/01/26 10:09:29;;;;;;;4.30;1.87;;;;;;;;;;4935792;29;20417;-75
2024/01/26 10:11:55;;;;;;;1.40;1.30;;;;;;;;;;4935492;29;20568;-74
2024/01/26 10:14:21;;;;;;;3.43;2.17;;;;;;;;;;4934691;29;20421;-74
2024/01/26 10:17:00;;;;;;;4.33;1.60;;;;;;;;;;4935287;29;20441;-75
2024/01/26 10:19:27;;;;;;;3.17;1.53;;;;;;;;;;4936372;29;20414;-76
2024/01/26 10:21:53;;;;;;;1.50;1.40;;;;;;;;;;4937709;29;20449;-75
2024/01/26 10:24:22;;;;;;;2.53;1.30;;;;;;;;;;4932945;29;20418;-75
2024/01/26 10:26:48;;;;;;;6.50;2.37;;;;;;;;;;4929173;29;20749;-75
2024/01/26 10:29:14;;;;;;;6.23;2.37;;;;;;;;;;4935936;29;20422;-74
2024/01/26 10:31:41;;;;;;;6.63;1.80;;;;;;;;;;4936980;29;20565;-74
2024/01/26 10:34:09;;;;;;;2.80;1.63;;;;;;;;;;4938554;29;20420;-74
2024/01/26 10:36:36;;;;;;;4.43;1.50;;;;;;;;;;4937191;29;20806;-73
2024/01/26 10:39:03;;;;;;;3.57;1.73;;;;;;;;;;4938784;29;20901;-76
2024/01/26 10:41:31;;;;;;;3.10;1.80;;;;;;;;;;4933785;29;20431;-75
2024/01/26 10:43:57;;;;;;;3.10;2.03;;;;;;;;;;4937869;29;20943;-77
2024/01/26 10:46:24;;;;;;;3.23;1.50;;;;;;;;;;4937621;29;20532;-77
2024/01/26 10:48:51;;;;;;;1.97;1.60;;;;;;;;;;4937332;29;20846;-75
2024/01/26 10:51:19;;;;;;;4.73;2.13;;;;;;;;;;4936212;29;20604;-76
2024/01/26 10:53:46;;;;;;;2.43;1.43;;;;;;;;;;4939783;29;20468;-76
2024/01/26 10:56:12;;;;;;;2.23;1.57;;;;;;;;;;4937524;29;20433;-76
2024/01/26 10:58:38;;;;;;;2.90;1.80;;;;;;;;;;4926160;29;20422;-77
2024/01/26 11:01:05;;;;;;;2.10;1.67;;;;;;;;;;4936526;29;20437;-75
2024/01/26 11:03:31;;;;;;;5.70;1.80;;;;;;;;;;4921476;29;20422;-75
2024/01/26 11:05:59;;;;;;;9.43;1.90;;;;;;;;;;4922774;29;20438;-76
2024/01/26 11:08:25;;;;;;;1.70;1.67;;;;;;;;;;4921294;29;20430;-75
2024/01/26 11:10:52;;;;;;;3.93;1.53;;;;;;;;;;4936099;29;20460;-76
2024/01/26 11:13:18;;;;;;;2.50;1.90;;;;;;;;;;4937310;29;20452;-77
2024/01/26 11:15:46;;;;;;;3.80;1.53;;;;;;;;;;4935674;29;20893;-78
2024/01/26 11:18:26;;;;;;;2.43;1.73;;;;;;;;;;4935736;29;20940;-78
2024/01/26 11:20:52;;;;;;;2.37;1.90;;;;;;;;;;4940232;29;20418;-78
2024/01/26 11:23:18;;;;;;;3.47;2.00;;;;;;;;;;4936775;29;20445;-78
2024/01/26 11:25:45;;;;;;;4.57;1.83;;;;;;;;;;4937420;29;20461;-77
2024/01/26 11:28:11;;;;;;;2.80;2.10;;;;;;;;;;4937351;29;20433;-74
2024/01/26 11:30:39;;;;;;;3.10;1.87;;;;;;;;;;4936968;29;20454;-77
2024/01/26 11:33:16;;;;;;;3.27;1.70;;;;;;;;;;4935404;29;20861;-76
2024/01/26 11:35:42;;;;;;;3.63;1.80;;;;;;;;;;4936672;29;20481;-74
2024/01/26 11:38:09;;;;;;;1.67;1.40;;;;;;;;;;4935109;29;20434;-74
2024/01/26 11:40:35;;;;;;;1.77;1.63;;;;;;;;;;4918362;29;20516;-72
2024/01/26 11:43:02;;;;;;;3.40;1.60;;;;;;;;;;4934844;29;21097;-74
2024/01/26 11:45:30;;;;;;;2.67;1.60;;;;;;;;;;4937077;29;20473;-76
2024/01/26 11:47:56;;;;;;;2.30;1.53;;;;;;;;;;4939979;29;20464;-74
2024/01/26 11:50:22;;;;;;;3.47;1.70;;;;;;;;;;4940425;29;20453;-75
2024/01/26 11:52:49;;;;;;;2.37;1.83;;;;;;;;;;4940032;29;20965;-76
2024/01/26 11:55:15;;;;;;;2.00;1.73;;;;;;;;;;4937998;29;20461;-73
2024/01/26 11:57:41;;;;;;;1.70;1.67;;;;;;;;;;4929673;29;20986;-73
2024/01/26 12:00:10;;;;;;;1.50;1.40;;;;;;;;;;4957046;29;20434;-74
2024/01/26 12:02:36;;;;;;;1.53;1.20;;;;;;;;;;4956192;29;20429;-73
2024/01/26 12:05:02;;;;;;;1.77;1.33;;;;;;;;;;4949188;29;20422;-73
2024/01/26 12:07:28;;;;;;;3.50;1.40;;;;;;;;;;4945627;29;20410;-74
2024/01/26 12:09:54;;;;;;;2.53;2.10;;;;;;;;;;4933924;29;20424;-73
2024/01/26 12:12:20;;;;;;;3.50;1.60;;;;;;;;;;4918553;29;20410;-73
2024/01/26 12:14:46;;;;;;;2.10;1.50;;;;;;;;;;4941807;23;20446;-75
2024/01/26 12:17:13;;;;;;;1.27;1.20;;;;;;;;;;4935534;29;20540;-75
2024/01/26 12:19:39;;;;;;;3.70;1.53;;;;;;;;;;4936525;29;20489;-75
2024/01/26 12:22:08;;;;;;;1.40;1.40;;;;;;;;;;4937386;29;20464;-74
2024/01/26 12:24:35;;;;;;;3.57;1.53;;;;;;;;;;4940448;28;20424;-75
2024/01/26 12:27:02;;;;;;;1.90;1.53;;;;;;;;;;4936639;28;20429;-75
2024/01/26 12:29:29;;;;;;;2.70;1.40;;;;;;;;;;4936190;29;20961;-75
2024/01/26 12:32:02;;;;;;;2.97;1.50;;;;;;;;;;4934049;29;20469;-75
2024/01/26 12:34:28;;;;;;;1.50;1.40;;;;;;;;;;4935431;29;20425;-75
2024/01/26 12:37:01;;;;;;;2.90;1.43;;;;;;;;;;4934563;29;20445;-76
2024/01/26 12:39:28;;;;;;;1.67;1.30;;;;;;;;;;4935984;29;20418;-76
2024/01/26 12:41:54;;;;;;;4.27;1.27;;;;;;;;;;4917916;29;20501;-77
2024/01/26 12:44:27;;;;;;;1.73;1.40;;;;;;;;;;4918248;29;20418;-76
2024/01/26 12:46:53;;;;;;;1.50;1.40;;;;;;;;;;4917576;29;20589;-76
2024/01/26 12:49:19;;;;;;;2.17;1.70;;;;;;;;;;4922317;29;20421;-77
2024/01/26 12:51:45;;;;;;;2.43;1.70;;;;;;;;;;4936651;29;20465;-76
2024/01/26 12:54:11;;;;;;;1.60;1.37;;;;;;;;;;4935504;29;20450;-75
2024/01/26 12:56:37;;;;;;;2.87;1.60;;;;;;;;;;4937081;29;20438;-75
2024/01/26 12:59:03;;;;;;;1.40;1.40;;;;;;;;;;4934170;29;20619;-77
2024/01/26 13:01:30;;;;;;;3.63;1.63;;;;;;;;;;4921796;29;20418;-77
2024/01/26 13:03:56;;;;;;;6.57;2.00;;;;;;;;;;4918002;29;20466;-77
2024/01/26 13:06:22;;;;;;;2.80;1.60;;;;;;;;;;4919676;29;20443;-77
2024/01/26 13:08:48;;;;;;;1.90;1.57;;;;;;;;;;4921811;29;20430;-77
2024/01/26 13:11:14;;;;;;;1.27;1.23;;;;;;;;;;4932564;29;20480;-77
2024/01/26 13:13:40;;;;;;;3.50;1.40;;;;;;;;;;4935992;29;20414;-78
2024/01/26 13:16:07;;;;;;;4.13;1.63;;;;;;;;;;4934830;29;20458;-77
2024/01/26 13:18:33;;;;;;;2.40;1.50;;;;;;;;;;4935556;29;20417;-75
2024/01/26 13:21:00;;;;;;;1.30;1.10;;;;;;;;;;4935364;29;20452;-75
2024/01/26 13:23:25;;;;;;;3.50;1.23;;;;;;;;;;4935354;29;20421;-74
2024/01/26 13:25:54;;;;;;;2.40;1.47;;;;;;;;;;4933501;29;20441;-75
2024/01/26 13:28:20;;;;;;;1.23;1.10;;;;;;;;;;4935083;29;20476;-76
2024/01/26 13:30:46;;;;;;;1.30;1.20;;;;;;;;;;4934135;29;20465;-75
2024/01/26 13:33:12;;;;;;;1.20;1.20;;;;;;;;;;4935269;29;20414;-75
2024/01/26 13:35:38;;;;;;;2.83;1.53;;;;;;;;;;4918279;29;20486;-75
2024/01/26 13:38:04;;;;;;;3.00;1.70;;;;;;;;;;4916044;29;20423;-73
2024/01/26 13:40:30;;;;;;;5.27;1.77;;;;;;;;;;4916478;29;20438;-74
2024/01/26 13:42:57;;;;;;;6.13;1.00;;;;;;;;;;4915495;29;20789;-73
2024/01/26 13:45:24;;;;;;;3.63;1.70;;;;;;;;;;4932518;29;20960;-72
2024/01/26 13:47:50;;;;;;;2.83;2.13;;;;;;;;;;4935035;29;20422;-74
2024/01/26 13:50:16;;;;;;;2.27;1.30;;;;;;;;;;4937963;29;20956;-74
2024/01/26 13:52:43;;;;;;;3.00;1.30;;;;;;;;;;4939771;29;20439;-74
2024/01/26 13:55:09;;;;;;;3.10;1.17;;;;;;;;;;4939364;29;20538;-73
2024/01/26 13:57:35;;;;;;;1.60;1.50;;;;;;;;;;4941180;29;20477;-74
2024/01/26 14:00:01;;;;;;;1.37;1.10;;;;;;;;;;4938110;29;20441;-74
2024/01/26 14:02:27;;;;;;;2.30;1.30;;;;;;;;;;4936571;29;20410;-74
2024/01/26 14:04:53;;;;;;;3.07;1.00;;;;;;;;;;4936577;29;20490;-73
2024/01/26 14:07:19;;;;;;;1.40;1.30;;;;;;;;;;4938430;29;20441;-74
2024/01/26 14:09:45;;;;;;;1.90;1.30;;;;;;;;;;4937758;29;20420;-74
2024/01/26 14:12:11;;;;;;;1.10;1.00;;;;;;;;;;4937698;29;20536;-74
2024/01/26 14:14:37;;;;;;;1.20;1.00;;;;;;;;;;4937455;29;20850;-74
2024/01/26 14:17:03;;;;;;;1.77;1.10;;;;;;;;;;4938075;29;20952;-73
2024/01/26 14:19:29;;;;;;;1.47;1.20;;;;;;;;;;4938664;29;20426;-74
2024/01/26 14:21:55;;;;;;;0.90;0.90;;;;;;;;;;4938797;29;20778;-74
2024/01/26 14:24:21;;;;;;;1.27;1.20;;;;;;;;;;4938629;29;20416;-74
2024/01/26 14:26:47;;;;;;;1.27;1.10;;;;;;;;;;4938029;29;20803;-74
2024/01/26 14:29:17;;;;;;;0.90;0.80;;;;;;;;;;4924663;29;20429;-74
2024/01/26 14:31:43;;;;;;;2.30;2.10;;;;;;;;;;4919302;29;20809;-71
2024/01/26 14:34:09;;;;;;;1.10;1.07;;;;;;;;;;4931405;29;20426;-77
2024/01/26 14:36:36;;;;;;;2.03;1.23;;;;;;;;;;4919722;29;20430;-77
2024/01/26 14:39:04;;;;;;;1.63;1.03;;;;;;;;;;4918408;29;20799;-72
2024/01/26 14:41:30;;;;;;;1.90;1.20;;;;;;;;;;4919651;29;20477;-72
2024/01/26 14:43:56;;;;;;;1.17;1.00;;;;;;;;;;4917742;29;20423;-72
2024/01/26 14:46:22;;;;;;;1.40;1.30;;;;;;;;;;4928748;29;20473;-75
2024/01/26 14:48:48;;;;;;;1.17;1.13;;;;;;;;;;4920577;29;20428;-74
2024/01/26 14:51:15;;;;;;;5.80;1.07;;;;;;;;;;4937889;29;20483;-75
2024/01/26 14:53:41;;;;;;;1.50;1.30;;;;;;;;;;4936665;29;20921;-73
2024/01/26 14:56:08;;;;;;;2.30;1.10;;;;;;;;;;4936623;29;20452;-73
2024/01/26 14:58:34;;;;;;;2.10;1.40;;;;;;;;;;4937687;29;20414;-73
2024/01/26 15:01:00;;;;;;;2.37;1.30;;;;;;;;;;4936336;29;20430;-74
2024/01/26 15:03:26;;;;;;;3.97;1.90;;;;;;;;;;4937923;29;20413;-74
2024/01/26 15:05:52;;;;;;;1.90;1.23;;;;;;;;;;4937858;29;20499;-75
2024/01/26 15:08:17;;;;;;;2.13;1.30;;;;;;;;;;4937418;29;20414;-75
2024/01/26 15:10:49;;;;;;;2.40;1.30;;;;;;;;;;4928889;29;20470;-74
2024/01/26 15:13:15;;;;;;;3.07;1.50;;;;;;;;;;4918427;29;20794;-74
2024/01/26 15:15:41;;;;;;;2.00;1.60;;;;;;;;;;4917513;29;20541;-74
2024/01/26 15:18:07;;;;;;;2.00;1.40;;;;;;;;;;4918821;29;20419;-72
2024/01/26 15:20:33;;;;;;;1.90;1.17;;;;;;;;;;4917287;29;20426;-72
2024/01/26 15:22:59;;;;;;;1.50;1.40;;;;;;;;;;4918198;29;20490;-70
2024/01/26 15:25:25;;;;;;;5.90;1.33;;;;;;;;;;4918290;29;20439;-71
2024/01/26 15:27:51;;;;;;;1.83;1.20;;;;;;;;;;4916662;29;20522;-71
2024/01/26 15:30:17;;;;;;;1.37;1.23;;;;;;;;;;4917998;29;20434;-72
2024/01/26 15:32:43;;;;;;;2.03;1.77;;;;;;;;;;4916512;29;20411;-71
2024/01/26 15:35:13;;;;;;;4.63;2.70;;;;;;;;;;4917815;29;20871;-71
2024/01/26 15:37:40;;;;;;;7.33;3.23;;;;;;;;;;4918148;29;20411;-71
2024/01/26 15:40:06;;;;;;;6.17;2.70;;;;;;;;;;4934995;29;20905;-72
2024/01/26 15:42:32;;;;;;;5.77;2.40;;;;;;;;;;4933227;29;20449;-71
2024/01/26 15:44:59;;;;;;;1.37;1.27;;;;;;;;;;4935163;29;20960;-70
2024/01/26 15:47:29;;;;;;;0.90;0.90;;;;;;;;;;4936513;29;20438;-70
2024/01/26 15:49:55;;;;;;;1.80;0.80;;;;;;;;;;4936887;29;20441;-70
2024/01/26 15:52:22;;;;;;;5.33;1.40;;;;;;;;;;4935935;29;20949;-70
2024/01/26 15:54:48;;;;;;;1.20;1.00;;;;;;;;;;4922046;29;20422;-69
2024/01/26 15:57:15;;;;;;;1.03;0.80;;;;;;;;;;4918286;29;20430;-69
2024/01/26 15:59:41;;;;;;;1.07;0.97;;;;;;;;;;4920512;29;20452;-69
2024/01/26 16:02:07;;;;;;;0.90;0.90;;;;;;;;;;4934273;29;20410;-70
2024/01/26 16:04:33;;;;;;;0.70;0.70;;;;;;;;;;4928658;29;20423;-69
2024/01/26 16:06:59;;;;;;;0.90;0.90;;;;;;;;;;4928602;29;20437;-69
2024/01/26 16:09:25;;;;;;;1.00;0.90;;;;;;;;;;4934714;29;20492;-70
2024/01/26 16:11:51;;;;;;;0.87;0.80;;;;;;;;;;4934231;29;20477;-69
2024/01/26 16:14:17;;;;;;;0.97;0.90;;;;;;;;;;4928162;29;20505;-68
2024/01/26 16:16:43;;;;;;;1.03;0.97;;;;;;;;;;4935719;29;20495;-69
2024/01/26 16:19:09;;;;;;;0.83;0.73;;;;;;;;;;4935277;29;20418;-70
2024/01/26 16:21:36;;;;;;;1.10;1.10;;;;;;;;;;4935918;29;20414;-70
2024/01/26 16:24:04;;;;;;;1.10;1.00;;;;;;;;;;4933103;29;20430;-70
2024/01/26 16:26:30;;;;;;;1.13;1.07;;;;;;;;;;4917003;29;20509;-69
2024/01/26 16:28:56;;;;;;;1.10;1.00;;;;;;;;;;4915665;29;20418;-69
2024/01/26 16:31:22;;;;;;;0.90;0.80;;;;;;;;;;4916877;29;20879;-69
2024/01/26 16:33:48;;;;;;;2.60;1.00;;;;;;;;;;4917905;29;20505;-70
2024/01/26 16:36:14;;;;;;;1.10;1.00;;;;;;;;;;4916884;29;20809;-69
2024/01/26 16:38:40;;;;;;;1.83;1.17;;;;;;;;;;4916559;29;20791;-69
2024/01/26 16:41:06;;;;;;;1.33;1.23;;;;;;;;;;4925129;29;21003;-73
2024/01/26 16:43:32;;;;;;;1.57;1.47;;;;;;;;;;4931055;29;20728;-74
2024/01/26 16:45:58;;;;;;;2.93;1.40;;;;;;;;;;4933175;29;20528;-73
2024/01/26 16:48:24;;;;;;;2.33;1.53;;;;;;;;;;4934289;29;20429;-73
2024/01/26 16:50:50;;;;;;;1.30;1.30;;;;;;;;;;4935904;29;21000;-75
2024/01/26 16:53:16;;;;;;;1.73;1.50;;;;;;;;;;4935676;29;20916;-74
2024/01/26 16:55:42;;;;;;;1.23;1.23;;;;;;;;;;4936013;29;20434;-74
2024/01/26 16:58:07;;;;;;;1.57;1.50;;;;;;;;;;4935352;29;20457;-73
2024/01/26 17:00:33;;;;;;;1.50;1.30;;;;;;;;;;4936146;29;20787;-73
2024/01/26 17:02:59;;;;;;;2.10;1.40;;;;;;;;;;4935610;29;20456;-73
2024/01/26 17:05:27;;;;;;;3.67;1.50;;;;;;;;;;4935763;29;20446;-72
2024/01/26 17:07:53;;;;;;;2.80;1.20;;;;;;;;;;4935414;29;20527;-74
2024/01/26 17:10:19;;;;;;;1.13;1.10;;;;;;;;;;4935898;29;20428;-73
2024/01/26 17:12:45;;;;;;;4.50;1.40;;;;;;;;;;4936310;29;20434;-73
2024/01/26 17:15:12;;;;;;;1.40;1.30;;;;;;;;;;4935989;29;20481;-73
2024/01/26 17:17:37;;;;;;;10.47;2.40;;;;;;;;;;4936870;29;20406;-73
2024/01/26 17:20:04;;;;;;;2.30;1.73;;;;;;;;;;4935139;29;20460;-73
2024/01/26 17:22:35;;;;;;;2.10;1.30;;;;;;;;;;4928471;29;20422;-75
2024/01/26 17:25:03;;;;;;;6.93;2.07;;;;;;;;;;4932596;29;20468;-75
2024/01/26 17:27:29;;;;;;;2.70;1.93;;;;;;;;;;4931976;29;20425;-74
2024/01/26 17:29:56;;;;;;;3.43;2.10;;;;;;;;;;4935370;29;20930;-73
2024/01/26 17:32:22;;;;;;;2.30;1.80;;;;;;;;;;4922405;29;20553;-73
2024/01/26 17:34:48;;;;;;;10.87;2.70;;;;;;;;;;4938073;28;20418;-73
2024/01/26 17:37:14;;;;;;;3.40;2.30;;;;;;;;;;4936485;29;20421;-74
2024/01/26 17:39:42;;;;;;;3.70;2.10;;;;;;;;;;4936301;29;20472;-75
2024/01/26 17:42:08;;;;;;;3.40;1.97;;;;;;;;;;4928202;29;20438;-73
2024/01/26 17:44:34;;;;;;;10.27;2.10;;;;;;;;;;4935620;29;20512;-72
2024/01/26 17:47:00;;;;;;;2.57;1.80;;;;;;;;;;4934398;29;20813;-74
2024/01/26 17:49:26;;;;;;;3.77;2.10;;;;;;;;;;4935227;29;20795;-74
2024/01/26 17:51:53;;;;;;;9.00;2.33;;;;;;;;;;4935149;29;20520;-74
2024/01/26 17:54:23;;;;;;;11.70;2.00;;;;;;;;;;4934254;29;20429;-74
2024/01/26 17:56:49;;;;;;;2.30;1.70;;;;;;;;;;4934275;29;20452;-74
2024/01/26 17:59:15;;;;;;;5.57;2.00;;;;;;;;;;4934939;29;20913;-74
2024/01/26 18:01:41;;;;;;;2.50;1.40;;;;;;;;;;4931800;29;20442;-74
2024/01/26 18:04:07;;;;;;;8.17;2.60;;;;;;;;;;4932430;29;20441;-73
2024/01/26 18:06:33;;;;;;;3.40;1.77;;;;;;;;;;4934522;29;20433;-74
2024/01/26 18:08:59;;;;;;;3.17;1.60;;;;;;;;;;4934281;29;20789;-73
2024/01/26 18:11:25;;;;;;;5.80;1.70;;;;;;;;;;4934765;29;20948;-73
2024/01/26 18:13:51;;;;;;;2.67;1.80;;;;;;;;;;4934643;29;20462;-73
2024/01/26 18:16:17;;;;;;;2.30;2.10;;;;;;;;;;4934781;29;20829;-74
2024/01/26 18:18:43;;;;;;;3.37;1.83;;;;;;;;;;4934522;29;20913;-75
2024/01/26 18:21:11;;;;;;;3.47;1.80;;;;;;;;;;4934260;29;20433;-74
2024/01/26 18:23:37;;;;;;;5.30;2.07;;;;;;;;;;4934423;29;20920;-73
2024/01/26 18:26:03;;;;;;;3.17;1.60;;;;;;;;;;4934250;29;20500;-73
2024/01/26 18:28:29;;;;;;;12.30;2.23;;;;;;;;;;4932744;29;20426;-74
2024/01/26 18:30:55;;;;;;;7.13;1.50;;;;;;;;;;4918412;29;21022;-75
2024/01/26 18:33:21;;;;;;;3.07;1.90;;;;;;;;;;4915356;29;20421;-75
2024/01/26 18:35:48;;;;;;;4.10;2.17;;;;;;;;;;4914819;29;20806;-74
2024/01/26 18:38:13;;;;;;;4.40;2.73;;;;;;;;;;4922056;29;20433;-73
2024/01/26 18:40:39;;;;;;;4.10;1.73;;;;;;;;;;4934012;29;20418;-73
2024/01/26 18:43:05;;;;;;;4.63;1.87;;;;;;;;;;4934215;29;20409;-74
2024/01/26 18:45:31;;;;;;;3.87;1.70;;;;;;;;;;4933177;29;20492;-74
2024/01/26 18:47:57;;;;;;;2.63;1.83;;;;;;;;;;4934096;29;20501;-74
2024/01/26 18:50:23;;;;;;;2.53;2.03;;;;;;;;;;4933833;29;20425;-74
2024/01/26 18:52:49;;;;;;;8.33;2.50;;;;;;;;;;4937640;29;20564;-74
2024/01/26 18:55:15;;;;;;;4.83;1.97;;;;;;;;;;4932997;29;20438;-73
2024/01/26 18:57:41;;;;;;;4.17;1.80;;;;;;;;;;4918439;29;20410;-75
2024/01/26 19:00:08;;;;;;;4.50;2.27;;;;;;;;;;4922154;29;20962;-74
2024/01/26 19:02:34;;;;;;;12.60;2.23;;;;;;;;;;4933664;29;20448;-74
2024/01/26 19:05:00;;;;;;;7.43;2.23;;;;;;;;;;4920419;29;20945;-75
2024/01/26 19:07:26;;;;;;;3.53;1.97;;;;;;;;;;4918617;29;20494;-75
2024/01/26 19:09:52;;;;;;;6.93;1.80;;;;;;;;;;4918234;29;20457;-73
2024/01/26 19:12:18;;;;;;;4.57;2.23;;;;;;;;;;4918265;29;20505;-73
2024/01/26 19:14:44;;;;;;;7.13;2.30;;;;;;;;;;4919040;29;20418;-73
2024/01/26 19:17:10;;;;;;;6.10;2.13;;;;;;;;;;4936234;29;20504;-74
2024/01/26 19:19:38;;;;;;;4.60;1.87;;;;;;;;;;4925880;29;20446;-74
2024/01/26 19:22:04;;;;;;;15.03;2.43;;;;;;;;;;4918633;29;20418;-74
2024/01/26 19:24:30;;;;;;;4.33;2.00;;;;;;;;;;4918754;29;20497;-71
2024/01/26 19:26:56;;;;;;;5.87;2.17;;;;;;;;;;4918440;29;20501;-70
2024/01/26 19:29:22;;;;;;;9.83;2.37;;;;;;;;;;4918667;29;20470;-70
2024/01/26 19:31:50;;;;;;;2.23;1.80;;;;;;;;;;4926366;29;20481;-73
2024/01/26 19:34:16;;;;;;;2.33;1.67;;;;;;;;;;4937031;29;20829;-73
2024/01/26 19:36:41;;;;;;;4.20;2.10;;;;;;;;;;4947926;29;20429;-73
2024/01/26 19:39:08;;;;;;;3.10;1.70;;;;;;;;;;4955489;29;20431;-72
2024/01/26 19:41:34;;;;;;;2.80;1.90;;;;;;;;;;4933825;29;20418;-73
2024/01/26 19:44:01;;;;;;;4.10;2.23;;;;;;;;;;4919096;29;20445;-73
2024/01/26 19:46:30;;;;;;;6.47;2.37;;;;;;;;;;4918737;29;20785;-73
2024/01/26 19:48:56;;;;;;;3.73;2.70;;;;;;;;;;4920054;29;20410;-73
2024/01/26 19:51:22;;;;;;;4.70;2.60;;;;;;;;;;4932174;29;20812;-73
2024/01/26 19:53:48;;;;;;;8.47;2.87;;;;;;;;;;4936109;29;20465;-73
2024/01/26 19:56:14;;;;;;;11.97;3.60;;;;;;;;;;4937210;29;20449;-74
2024/01/26 19:58:42;;;;;;;10.93;3.33;;;;;;;;;;4936973;29;20500;-74
2024/01/26 20:01:08;;;;;;;3.00;2.50;;;;;;;;;;4937007;29;20960;-74
2024/01/26 20:03:43;;;;;;;8.37;3.13;;;;;;;;;;4938685;29;20439;-75
2024/01/26 20:06:09;;;;;;;7.30;3.73;;;;;;;;;;4936855;29;20472;-73
2024/01/26 20:08:36;;;;;;;4.57;3.30;;;;;;;;;;4936545;29;20436;-74
2024/01/26 20:11:02;;;;;;;5.47;4.03;;;;;;;;;;4942643;29;20458;-75
2024/01/26 20:13:28;;;;;;;6.93;3.87;;;;;;;;;;4940384;29;20409;-73
2024/01/26 20:15:54;;;;;;;8.70;3.77;;;;;;;;;;4938118;29;20453;-74
2024/01/26 20:18:20;;;;;;;7.17;3.70;;;;;;;;;;4937493;29;20905;-74
2024/01/26 20:20:46;;;;;;;7.90;2.93;;;;;;;;;;4936546;29;20421;-75
2024/01/26 20:23:12;;;;;;;4.27;3.00;;;;;;;;;;4936292;29;20430;-75
2024/01/26 20:25:41;;;;;;;13.83;3.20;;;;;;;;;;4936860;29;20437;-74
2024/01/26 20:28:07;;;;;;;5.37;2.90;;;;;;;;;;4935103;29;20933;-72
2024/01/26 20:30:33;;;;;;;7.57;3.50;;;;;;;;;;4936133;29;20468;-74
2024/01/26 20:33:01;;;;;;;8.63;3.40;;;;;;;;;;4934370;29;20430;-72
2024/01/26 20:35:27;;;;;;;4.77;3.27;;;;;;;;;;4934837;29;20477;-70
2024/01/26 20:37:53;;;;;;;5.43;3.00;;;;;;;;;;4935029;29;20414;-71
2024/01/26 20:40:19;;;;;;;5.00;2.87;;;;;;;;;;4935114;29;20845;-71